Terminal Aerodrome Forecast
Issued by NWS Buffalo, NY

Home | Current Version | Previous Version | Text Only | Print | Product List | Glossary On
Versions: 1 2 3 4 5 6 7 8 9 10 11 12 13 14 15 16 17 18 19 20 21 22 23 24 25 26 27 28 29
694
FTUS41 KBUF 121526 AAB
TAFART
TAF AMD
KART 121526Z 1215/1312 17012KT 2SM -SN BKN015
     FM122200 23012G20KT 1SM -SN OVC015
     FM130200 27011KT 2SM -SHSN OVC025
     FM130400 30012KT P6SM VCSH OVC035
     FM130600 33014G21KT P6SM BKN035=

USA.gov is the U.S. government's official web portal to all federal, state and local government web resources and services.